createdAt,value
2022-08-03T00:02:35.816Z,2.20
2022-08-03T00:05:38.618Z,2.60
2022-08-03T00:08:43.146Z,2.30
2022-08-03T00:11:46.177Z,2.30
2022-08-03T00:14:49.545Z,2.23
2022-08-03T00:17:54.105Z,2.20
2022-08-03T00:20:57.659Z,2.40
2022-08-03T00:24:02.151Z,2.00
2022-08-03T00:27:05.043Z,2.23
2022-08-03T00:30:09.041Z,2.27
2022-08-03T00:33:12.105Z,2.43
2022-08-03T00:36:16.604Z,2.60
2022-08-03T00:39:20.869Z,2.40
2022-08-03T00:42:23.566Z,2.40
2022-08-03T00:45:34.199Z,2.40
2022-08-03T00:48:36.983Z,2.43
2022-08-03T00:51:39.827Z,2.60
2022-08-03T00:54:44.209Z,2.60
2022-08-03T00:57:47.907Z,2.43
2022-08-03T01:00:51.217Z,2.47
2022-08-03T01:03:54.017Z,2.50
2022-08-03T01:07:04.544Z,2.60
2022-08-03T01:10:23.016Z,2.70
2022-08-03T01:13:30.761Z,2.60
2022-08-03T01:17:00.540Z,2.63
2022-08-03T01:20:07.880Z,2.70
2022-08-03T01:23:36.243Z,2.77
2022-08-03T01:27:05.055Z,2.67
2022-08-03T01:30:12.123Z,2.57
2022-08-03T01:33:19.913Z,3.00
2022-08-03T01:36:26.140Z,3.00
2022-08-03T01:39:31.751Z,2.43
2022-08-03T01:42:37.624Z,2.83
2022-08-03T01:45:43.162Z,2.63
2022-08-03T01:48:49.010Z,2.63
2022-08-03T01:52:03.210Z,2.80
2022-08-03T01:55:09.627Z,2.63
2022-08-03T01:58:15.446Z,2.70
2022-08-03T02:01:21.756Z,2.50
2022-08-03T02:04:26.626Z,2.73
2022-08-03T02:07:31.476Z,2.70
2022-08-03T02:10:36.329Z,2.87
2022-08-03T02:13:40.579Z,2.73
2022-08-03T02:16:46.449Z,2.80
2022-08-03T02:19:52.299Z,2.70
2022-08-03T02:22:55.602Z,2.60
2022-08-03T02:26:02.094Z,2.90
2022-08-03T02:29:12.447Z,2.53
2022-08-03T02:32:22.089Z,2.90
2022-08-03T02:35:29.717Z,2.60
2022-08-03T02:38:35.397Z,2.87
2022-08-03T02:41:44.606Z,3.00
2022-08-03T02:44:51.088Z,2.90
2022-08-03T02:47:59.653Z,2.70
2022-08-03T02:51:04.928Z,2.77
2022-08-03T02:54:10.414Z,2.63
2022-08-03T02:57:15.373Z,2.93
2022-08-03T03:00:27.253Z,3.17
2022-08-03T03:03:35.272Z,2.87
2022-08-03T03:06:43.964Z,3.00
2022-08-03T03:09:50.618Z,2.80
2022-08-03T03:12:57.266Z,2.90
2022-08-03T03:16:01.864Z,3.10
2022-08-03T03:19:06.480Z,2.93
2022-08-03T03:22:10.170Z,3.00
2022-08-03T03:25:13.244Z,2.63
2022-08-03T03:28:16.490Z,2.90
2022-08-03T03:31:19.270Z,3.07
2022-08-03T03:34:23.929Z,2.80
2022-08-03T03:37:28.195Z,2.77
2022-08-03T03:40:31.369Z,3.10
2022-08-03T03:43:34.897Z,2.70
2022-08-03T03:46:38.761Z,3.20
2022-08-03T03:49:43.214Z,2.90
2022-08-03T03:52:46.153Z,3.03
2022-08-03T03:56:02.349Z,3.10
2022-08-03T03:59:05.738Z,2.90
2022-08-03T04:02:10.107Z,2.90
2022-08-03T04:05:32.043Z,3.60
2022-08-03T04:08:52.409Z,3.30
2022-08-03T04:11:59.736Z,3.20
2022-08-03T04:15:04.837Z,3.10
2022-08-03T04:18:10.373Z,3.50
2022-08-03T04:21:16.214Z,3.30
2022-08-03T04:24:21.893Z,3.37
2022-08-03T04:27:34.419Z,3.60
2022-08-03T04:30:47.527Z,3.50
2022-08-03T04:33:52.721Z,2.90
2022-08-03T04:37:01.399Z,3.20
2022-08-03T04:40:09.845Z,3.70
2022-08-03T04:43:16.412Z,3.53
2022-08-03T04:46:20.706Z,3.13
2022-08-03T04:49:24.166Z,3.00
2022-08-03T04:52:28.663Z,3.43
2022-08-03T04:55:33.301Z,3.40
2022-08-03T04:58:36.658Z,3.50
2022-08-03T05:01:40.889Z,3.53
2022-08-03T05:04:46.497Z,3.70
2022-08-03T05:07:51.081Z,3.30
2022-08-03T05:10:53.807Z,3.47
2022-08-03T05:13:56.683Z,3.43
2022-08-03T05:16:59.453Z,3.37
2022-08-03T05:20:03.960Z,3.63
2022-08-03T05:23:08.052Z,3.70
2022-08-03T05:26:11.791Z,3.17
2022-08-03T05:29:14.484Z,3.00
2022-08-03T05:32:18.071Z,3.20
2022-08-03T05:36:01.805Z,3.30
2022-08-03T05:38:45.131Z,3.20
2022-08-03T05:41:48.112Z,3.17
2022-08-03T05:44:51.172Z,2.63
2022-08-03T05:47:54.232Z,2.80
2022-08-03T05:50:56.946Z,3.20
2022-08-03T05:54:01.002Z,2.70
2022-08-03T05:57:03.737Z,4.13
2022-08-03T06:00:08.920Z,3.10
2022-08-03T06:03:12.811Z,3.10
2022-08-03T06:06:15.858Z,3.00
2022-08-03T06:09:20.046Z,4.07
2022-08-03T06:12:22.777Z,3.70
2022-08-03T06:15:25.710Z,3.07
2022-08-03T06:18:36.223Z,3.47
2022-08-03T06:21:41.728Z,3.63
2022-08-03T06:24:53.589Z,3.73
2022-08-03T06:27:57.870Z,4.00
2022-08-03T06:31:04.370Z,3.93
2022-08-03T06:34:33.268Z,3.50
2022-08-03T06:37:33.806Z,2.70
2022-08-03T06:40:40.185Z,2.97
2022-08-03T06:44:03.904Z,3.37
2022-08-03T06:47:07.308Z,2.37
2022-08-03T06:50:12.730Z,3.17
2022-08-03T06:53:21.502Z,3.10
2022-08-03T06:56:25.851Z,2.20
2022-08-03T07:00:09.499Z,2.83
2022-08-03T07:02:56.140Z,2.60
2022-08-03T07:06:00.839Z,3.30
2022-08-03T07:09:03.971Z,2.50
2022-08-03T07:12:08.595Z,2.87
2022-08-03T07:15:20.559Z,2.50
2022-08-03T07:18:35.296Z,2.87
2022-08-03T07:21:38.010Z,2.60
2022-08-03T07:24:41.919Z,2.50
2022-08-03T07:27:51.400Z,2.17
2022-08-03T07:30:54.885Z,2.77
2022-08-03T07:33:57.636Z,2.30
2022-08-03T07:37:00.859Z,2.67
2022-08-03T07:40:05.223Z,2.80
2022-08-03T07:43:09.480Z,2.20
2022-08-03T07:46:12.453Z,2.60
2022-08-03T07:49:15.445Z,2.80
2022-08-03T07:52:36.340Z,2.50
2022-08-03T07:55:39.669Z,2.30
2022-08-03T07:58:43.896Z,1.90
2022-08-03T08:01:46.625Z,2.40
2022-08-03T08:04:49.589Z,1.90
2022-08-03T08:07:52.444Z,1.90
2022-08-03T08:10:58.013Z,1.73
2022-08-03T08:14:03.893Z,1.77
2022-08-03T08:17:07.482Z,1.80
2022-08-03T08:20:11.753Z,1.80
2022-08-03T08:23:42.799Z,1.83
2022-08-03T08:26:37.815Z,2.07
2022-08-03T08:29:47.630Z,1.93
2022-08-03T08:32:55.983Z,2.00
2022-08-03T08:35:58.731Z,1.70
2022-08-03T08:39:01.493Z,1.67
2022-08-03T08:42:04.515Z,1.83
2022-08-03T08:45:10.041Z,1.70
2022-08-03T08:48:14.910Z,2.00
2022-08-03T08:51:19.561Z,1.90
2022-08-03T08:54:23.495Z,1.93
2022-08-03T08:57:42.844Z,2.10
2022-08-03T09:00:48.494Z,1.93
2022-08-03T09:03:51.900Z,1.90
2022-08-03T09:07:18.810Z,2.20
2022-08-03T09:10:22.002Z,1.93
2022-08-03T09:13:24.834Z,1.80
2022-08-03T09:16:29.096Z,1.80
2022-08-03T09:19:33.805Z,1.83
2022-08-03T09:22:37.030Z,2.10
2022-08-03T09:25:42.296Z,2.33
2022-08-03T09:29:00.661Z,2.30
2022-08-03T09:32:08.938Z,2.83
2022-08-03T09:35:12.827Z,2.70
2022-08-03T09:38:18.103Z,2.37
2022-08-03T09:41:20.921Z,2.20
2022-08-03T09:44:35.844Z,2.37
2022-08-03T09:47:45.005Z,2.10
2022-08-03T09:50:58.421Z,2.23
2022-08-03T09:54:20.301Z,1.85
2022-08-03T09:57:24.189Z,2.55
2022-08-03T10:00:27.079Z,1.90
2022-08-03T10:03:35.042Z,2.28
2022-08-03T10:06:37.973Z,1.90
2022-08-03T10:09:54.658Z,2.47
2022-08-03T10:12:57.850Z,1.60
2022-08-03T10:16:21.277Z,1.75
2022-08-03T10:19:25.672Z,1.95
2022-08-03T10:22:30.801Z,1.60
2022-08-03T10:25:35.825Z,1.60
2022-08-03T10:28:45.517Z,1.80
2022-08-03T10:31:57.568Z,1.73
2022-08-03T10:35:19.095Z,1.60
2022-08-03T10:38:30.403Z,1.92
2022-08-03T10:41:37.353Z,1.90
2022-08-03T10:44:42.099Z,1.75
2022-08-03T10:47:45.753Z,1.90
2022-08-03T10:50:51.609Z,1.90
2022-08-03T10:53:55.701Z,1.92
2022-08-03T10:57:16.456Z,1.80
2022-08-03T11:00:22.337Z,2.05
2022-08-03T11:03:25.106Z,1.77
2022-08-03T11:06:37.562Z,1.88
2022-08-03T11:09:43.333Z,2.00
2022-08-03T11:12:47.336Z,1.90
2022-08-03T11:16:01.610Z,1.80
2022-08-03T11:19:07.245Z,2.00
2022-08-03T11:22:12.316Z,2.00
2022-08-03T11:25:53.598Z,1.70
2022-08-03T11:28:40.879Z,1.90
2022-08-03T11:31:50.324Z,1.83
2022-08-03T11:35:09.102Z,2.15
2022-08-03T11:38:13.470Z,1.95
2022-08-03T11:41:34.275Z,1.63
2022-08-03T11:44:47.897Z,1.90
2022-08-03T11:47:54.887Z,1.77
2022-08-03T11:50:58.558Z,1.80
2022-08-03T11:54:05.322Z,1.65
2022-08-03T11:57:08.253Z,1.67
2022-08-03T12:00:22.745Z,1.60
2022-08-03T12:03:25.500Z,1.83
2022-08-03T12:06:28.332Z,1.58
2022-08-03T12:09:36.336Z,1.95
2022-08-03T12:12:44.506Z,1.63
2022-08-03T12:15:53.501Z,1.50
2022-08-03T12:19:01.541Z,1.85
2022-08-03T12:22:04.456Z,1.70
2022-08-03T12:25:10.837Z,1.70
2022-08-03T12:28:35.977Z,1.65
2022-08-03T12:31:41.049Z,1.88
2022-08-03T12:34:47.836Z,1.85
2022-08-03T12:37:50.779Z,1.52
2022-08-03T12:41:14.647Z,1.75
2022-08-03T12:44:17.430Z,1.70
2022-08-03T12:47:20.400Z,2.00
2022-08-03T12:50:28.668Z,1.50
2022-08-03T12:53:39.016Z,1.60
2022-08-03T12:57:01.586Z,1.60
2022-08-03T13:00:13.059Z,1.70
2022-08-03T13:03:38.975Z,1.73
2022-08-03T13:06:42.948Z,1.70
2022-08-03T13:09:47.973Z,1.70
2022-08-03T13:12:52.760Z,1.67
2022-08-03T13:15:55.480Z,1.67
2022-08-03T13:18:58.189Z,1.58
2022-08-03T13:22:04.329Z,1.55
2022-08-03T13:25:08.866Z,2.00
2022-08-03T13:28:14.440Z,1.80
2022-08-03T13:31:17.487Z,2.28
2022-08-03T13:34:23.892Z,1.40
2022-08-03T13:37:27.257Z,1.77
2022-08-03T13:41:05.278Z,1.58
2022-08-03T13:44:32.616Z,1.60
2022-08-03T13:48:16.822Z,1.80
2022-08-03T13:51:54.636Z,1.48
2022-08-03T13:54:57.818Z,1.98
2022-08-03T13:58:11.928Z,2.10
2022-08-03T14:01:16.381Z,1.50
2022-08-03T14:04:21.839Z,1.63
2022-08-03T14:07:25.306Z,1.55
2022-08-03T14:10:28.020Z,1.63
2022-08-03T14:13:30.743Z,2.03
2022-08-03T14:16:34.877Z,1.50
2022-08-03T14:19:44.896Z,1.80
2022-08-03T14:22:57.021Z,1.35
2022-08-03T14:25:59.767Z,1.60
2022-08-03T14:29:02.883Z,1.45
2022-08-03T14:32:11.664Z,1.50
2022-08-03T14:35:15.595Z,1.52
2022-08-03T14:38:19.221Z,1.67
2022-08-03T14:41:22.076Z,1.30
2022-08-03T14:44:24.793Z,1.60
2022-08-03T14:47:28.885Z,1.40
2022-08-03T14:50:41.960Z,1.52
2022-08-03T14:53:46.663Z,1.75
2022-08-03T14:56:49.373Z,1.73
2022-08-03T14:59:55.538Z,1.48
2022-08-03T15:03:01.989Z,1.55
2022-08-03T15:06:05.039Z,1.52
2022-08-03T15:09:21.106Z,1.40
2022-08-03T15:12:26.098Z,1.50
2022-08-03T15:15:29.306Z,1.55
2022-08-03T15:18:33.747Z,1.50
2022-08-03T15:21:46.545Z,1.58
2022-08-03T15:24:50.829Z,1.73
2022-08-03T15:28:04.035Z,1.60
2022-08-03T15:31:08.134Z,1.48
2022-08-03T15:34:13.083Z,1.55
2022-08-03T15:37:16.720Z,1.52
2022-08-03T15:40:22.645Z,1.42
2022-08-03T15:43:31.912Z,1.63
2022-08-03T15:46:38.923Z,1.60
2022-08-03T15:49:49.990Z,1.42
2022-08-03T15:52:56.026Z,1.55
2022-08-03T15:56:11.409Z,1.70
2022-08-03T15:59:17.272Z,1.48
2022-08-03T16:02:20.309Z,1.30
2022-08-03T16:05:24.556Z,1.65
2022-08-03T16:08:27.427Z,1.30
2022-08-03T16:11:30.631Z,1.60
2022-08-03T16:14:42.198Z,1.38
2022-08-03T16:17:53.746Z,1.42
2022-08-03T16:20:58.189Z,1.40
2022-08-03T16:24:02.125Z,1.50
2022-08-03T16:27:17.467Z,1.60
2022-08-03T16:30:31.320Z,1.67
2022-08-03T16:33:36.120Z,1.60
2022-08-03T16:36:40.387Z,1.83
2022-08-03T16:39:43.101Z,1.77
2022-08-03T16:42:45.846Z,1.77
2022-08-03T16:45:49.282Z,1.80
2022-08-03T16:48:52.397Z,1.70
2022-08-03T16:51:56.614Z,1.90
2022-08-03T16:55:02.205Z,1.70
2022-08-03T16:58:07.472Z,1.80
2022-08-03T17:01:22.377Z,1.50
2022-08-03T17:04:28.360Z,1.80
2022-08-03T17:07:33.275Z,1.63
2022-08-03T17:10:35.952Z,1.70
2022-08-03T17:13:40.323Z,1.55
2022-08-03T17:16:52.571Z,1.70
2022-08-03T17:19:58.633Z,1.60
2022-08-03T17:23:19.202Z,1.88
2022-08-03T17:26:38.443Z,1.90
2022-08-03T17:29:48.402Z,1.75
2022-08-03T17:32:52.659Z,1.88
2022-08-03T17:36:01.829Z,2.08
2022-08-03T17:39:06.953Z,2.05
2022-08-03T17:42:31.217Z,2.08
2022-08-03T17:45:42.301Z,1.80
2022-08-03T17:48:58.908Z,2.22
2022-08-03T17:52:04.036Z,2.30
2022-08-03T17:55:55.229Z,2.00
2022-08-03T17:58:53.534Z,1.90
2022-08-03T18:02:29.777Z,1.95
2022-08-03T18:06:11.718Z,1.90
2022-08-03T18:09:05.074Z,1.73
2022-08-03T18:12:29.445Z,1.70
2022-08-03T18:15:38.738Z,1.85
2022-08-03T18:18:44.049Z,2.00
2022-08-03T18:22:02.920Z,2.00
2022-08-03T18:25:09.300Z,1.92
2022-08-03T18:28:18.875Z,2.05
2022-08-03T18:32:00.267Z,1.70
2022-08-03T18:34:53.674Z,1.88
2022-08-03T18:37:59.108Z,1.70
2022-08-03T18:41:12.712Z,1.83
2022-08-03T18:44:53.410Z,2.00
2022-08-03T18:48:05.102Z,1.92
2022-08-03T18:51:11.964Z,2.13
2022-08-03T18:54:59.037Z,1.90
2022-08-03T18:58:18.197Z,2.15
2022-08-03T19:02:00.639Z,2.25
2022-08-03T19:04:55.453Z,2.10
2022-08-03T19:08:06.164Z,2.70
2022-08-03T19:11:28.243Z,2.42
2022-08-03T19:14:41.636Z,2.60
2022-08-03T19:17:50.264Z,2.50
2022-08-03T19:20:58.043Z,2.40
2022-08-03T19:27:27.286Z,2.50
2022-08-03T19:30:38.724Z,2.23
2022-08-03T19:33:57.472Z,2.30
2022-08-03T19:37:01.590Z,2.10
2022-08-03T19:40:06.072Z,2.07
2022-08-03T19:43:21.581Z,2.30
2022-08-03T19:46:27.635Z,2.40
2022-08-03T19:50:06.167Z,2.47
2022-08-03T19:53:04.792Z,2.13
2022-08-03T19:56:11.187Z,2.20
2022-08-03T19:59:14.836Z,2.17
2022-08-03T20:02:27.212Z,2.53
2022-08-03T20:05:45.100Z,2.27
2022-08-03T20:08:54.939Z,2.30
2022-08-03T20:11:57.877Z,2.60
2022-08-03T20:15:01.411Z,2.50
2022-08-03T20:18:04.575Z,2.40
2022-08-03T20:21:14.814Z,2.13
2022-08-03T20:24:24.355Z,2.37
2022-08-03T20:27:30.282Z,2.20
2022-08-03T20:30:34.195Z,2.23
2022-08-03T20:33:46.293Z,2.10
2022-08-03T20:36:53.110Z,2.57
2022-08-03T20:39:55.872Z,2.40
2022-08-03T20:42:59.782Z,2.20
2022-08-03T20:49:27.864Z,2.20
2022-08-03T20:52:32.772Z,2.13
2022-08-03T20:55:47.783Z,2.40
2022-08-03T20:58:59.273Z,2.60
2022-08-03T21:02:03.569Z,2.50
2022-08-03T21:05:09.217Z,2.50
2022-08-03T21:08:15.892Z,2.50
2022-08-03T21:11:20.159Z,2.40
2022-08-03T21:13:09.132Z,2.10
2022-08-03T21:13:13.491Z,2.30
2022-08-03T21:14:28.911Z,2.30
2022-08-03T21:17:42.003Z,2.37
2022-08-03T21:20:47.692Z,2.40
2022-08-03T21:23:53.208Z,2.30
2022-08-03T21:26:56.041Z,2.60
2022-08-03T21:29:59.870Z,2.40
2022-08-03T21:33:02.716Z,2.63
2022-08-03T21:36:06.706Z,2.30
2022-08-03T21:39:12.158Z,2.20
2022-08-03T21:42:15.548Z,2.30
2022-08-03T21:45:18.439Z,2.33
2022-08-03T21:48:25.228Z,2.20
2022-08-03T21:51:31.235Z,2.20
2022-08-03T21:54:38.838Z,2.73
2022-08-03T21:57:46.172Z,2.40
2022-08-03T22:00:49.104Z,2.30
2022-08-03T22:03:54.273Z,2.33
2022-08-03T22:06:57.867Z,2.80
2022-08-03T22:10:04.700Z,2.73
2022-08-03T22:13:07.533Z,2.40
2022-08-03T22:16:10.697Z,2.53
2022-08-03T22:19:13.556Z,2.40
2022-08-03T22:22:18.953Z,2.53
2022-08-03T22:25:29.463Z,2.93
2022-08-03T22:28:33.210Z,3.30
2022-08-03T22:31:58.068Z,2.53
2022-08-03T22:35:01.020Z,2.87
2022-08-03T22:38:07.908Z,3.40
2022-08-03T22:41:12.151Z,3.50
2022-08-03T22:44:14.982Z,3.10
2022-08-03T22:47:22.439Z,3.30
2022-08-03T22:50:31.968Z,3.20
2022-08-03T22:53:37.256Z,2.67
2022-08-03T22:56:41.904Z,2.50
2022-08-03T22:59:47.317Z,2.77
2022-08-03T23:02:52.071Z,2.47
2022-08-03T23:06:02.022Z,2.43
2022-08-03T23:09:09.536Z,2.50
2022-08-03T23:12:16.272Z,2.63
2022-08-03T23:15:19.610Z,2.63
2022-08-03T23:18:23.553Z,2.80
2022-08-03T23:21:53.705Z,2.60
2022-08-03T23:24:50.961Z,2.70
2022-08-03T23:28:05.421Z,2.87
2022-08-03T23:31:10.077Z,2.50
2022-08-03T23:34:33.044Z,2.67
2022-08-03T23:38:04.739Z,2.33
2022-08-03T23:41:00.545Z,2.60
2022-08-03T23:44:05.565Z,2.60
2022-08-03T23:47:08.297Z,2.60
2022-08-03T23:50:11.005Z,2.70
2022-08-03T23:53:19.364Z,2.57
2022-08-03T23:56:28.761Z,2.67
2022-08-03T23:59:41.609Z,2.43
